ZPPP METAR and TAF | Updated Today

ZPPP METAR

Kunming Changshui International Airport

Observation time: 19 min. ago

ZPPP 052000Z VRB01MPS CAVOK 07/04 Q1017 NOSIG

Need help? Read our tutorial on how to read METARs or read the parsed version below.

Kunming Changshui International Airport (ZPPP) METAR

  • Weather conditions on Sun, 05 Feb 2023 20:00:00 +0000 (19 min. ago):
  • Present conditions: Dry
  • Clouds: Clear skies
  • Visibility: Greater than 10 km
  • Wind: Variable at 1 knots
  • Temperature: 7 celsius
  • Dew point: 4 celsius
  • Pressure: 1017 millibars
  • Remarks: None


Useful to know...

ZPPP TAF

Kunming Changshui International Airport

TAF ZPPP 051511Z 0518/0618 22004MPS 9999 FEW026 TX21/0608Z TN08/0523Z BECMG 0602/0603 22009G14MPS BECMG 0609/0610 22004MPS
Observation time: 5:08 hr. ago
Need help? Read our tutorial on how to read TAFs or read the parsed version below.

Parsed version of TAF for Kunming Changshui International Airport (ZPPP)

  • From 05 February at 18:00 UTC, to day 06 of the month at 18:00 UTC
  • Clouds: A few at 792 meters
  • Visibility: Greater than 10 km
  • Wind: 220 degrees at 4
  • Expected to arise soon, from 06 February at 02:00 UTC, to day 06 of the month at 03:00 UTC
  • Wind: 220 degrees at 9
  • Expected to arise soon, from 06 February at 09:00 UTC, to day 06 of the month at 10:00 UTC
  • Wind: 220 degrees at 4

Airports near ZPPP

No airports found within 100nm radius.